sensor_id;sensor_type;location;lat;lon;timestamp;temperature;humidity
51029;DHT22;37054;52.054;8.600;2023-04-29T00:01:13;18.60;63.90
51029;DHT22;37054;52.054;8.600;2023-04-29T00:03:38;18.50;63.80
51029;DHT22;37054;52.054;8.600;2023-04-29T00:06:03;18.40;63.50
51029;DHT22;37054;52.054;8.600;2023-04-29T00:08:29;18.30;63.50
51029;DHT22;37054;52.054;8.600;2023-04-29T00:10:54;18.30;63.80
51029;DHT22;37054;52.054;8.600;2023-04-29T00:13:20;18.10;63.60
51029;DHT22;37054;52.054;8.600;2023-04-29T00:15:46;18.00;63.60
51029;DHT22;37054;52.054;8.600;2023-04-29T00:18:11;17.90;64.00
51029;DHT22;37054;52.054;8.600;2023-04-29T00:20:38;17.80;64.30
51029;DHT22;37054;52.054;8.600;2023-04-29T00:23:04;17.80;64.40
51029;DHT22;37054;52.054;8.600;2023-04-29T00:25:30;17.70;64.60
51029;DHT22;37054;52.054;8.600;2023-04-29T00:27:55;17.70;64.70
51029;DHT22;37054;52.054;8.600;2023-04-29T00:30:26;17.70;64.80
51029;DHT22;37054;52.054;8.600;2023-04-29T00:32:51;17.70;64.80
51029;DHT22;37054;52.054;8.600;2023-04-29T00:35:17;17.70;64.90
51029;DHT22;37054;52.054;8.600;2023-04-29T00:37:42;17.70;65.00
51029;DHT22;37054;52.054;8.600;2023-04-29T00:40:08;17.70;65.10
51029;DHT22;37054;52.054;8.600;2023-04-29T00:42:33;17.70;65.20
51029;DHT22;37054;52.054;8.600;2023-04-29T00:44:59;17.70;65.20
51029;DHT22;37054;52.054;8.600;2023-04-29T00:47:24;17.60;65.10
51029;DHT22;37054;52.054;8.600;2023-04-29T00:49:50;17.60;65.10
51029;DHT22;37054;52.054;8.600;2023-04-29T00:52:15;17.60;65.10
51029;DHT22;37054;52.054;8.600;2023-04-29T00:54:42;17.50;65.10
51029;DHT22;37054;52.054;8.600;2023-04-29T00:57:07;17.50;65.10
51029;DHT22;37054;52.054;8.600;2023-04-29T00:59:33;17.50;65.20
51029;DHT22;37054;52.054;8.600;2023-04-29T01:02:00;17.50;65.20
51029;DHT22;37054;52.054;8.600;2023-04-29T01:04:26;17.50;65.10
51029;DHT22;37054;52.054;8.600;2023-04-29T01:07:00;17.50;65.20
51029;DHT22;37054;52.054;8.600;2023-04-29T01:09:31;17.50;65.20
51029;DHT22;37054;52.054;8.600;2023-04-29T01:12:13;17.50;65.30
51029;DHT22;37054;52.054;8.600;2023-04-29T01:14:39;17.50;65.20
51029;DHT22;37054;52.054;8.600;2023-04-29T01:17:11;17.50;65.20
51029;DHT22;37054;52.054;8.600;2023-04-29T01:19:51;17.50;64.90
51029;DHT22;37054;52.054;8.600;2023-04-29T01:22:19;17.50;64.90
51029;DHT22;37054;52.054;8.600;2023-04-29T01:24:46;17.50;64.90
51029;DHT22;37054;52.054;8.600;2023-04-29T01:40:48;17.50;64.90
51029;DHT22;37054;52.054;8.600;2023-04-29T01:43:21;17.40;64.80
51029;DHT22;37054;52.054;8.600;2023-04-29T01:45:47;17.40;64.70
51029;DHT22;37054;52.054;8.600;2023-04-29T01:48:12;17.40;64.60
51029;DHT22;37054;52.054;8.600;2023-04-29T01:50:38;17.30;64.60
51029;DHT22;37054;52.054;8.600;2023-04-29T01:53:03;17.40;64.70
51029;DHT22;37054;52.054;8.600;2023-04-29T01:55:29;17.30;64.80
51029;DHT22;37054;52.054;8.600;2023-04-29T01:57:54;17.30;64.80
51029;DHT22;37054;52.054;8.600;2023-04-29T02:00:20;17.30;64.70
51029;DHT22;37054;52.054;8.600;2023-04-29T02:02:46;17.30;64.80
51029;DHT22;37054;52.054;8.600;2023-04-29T02:05:11;17.20;64.80
51029;DHT22;37054;52.054;8.600;2023-04-29T02:07:36;17.20;64.80
51029;DHT22;37054;52.054;8.600;2023-04-29T02:10:02;17.20;64.90
51029;DHT22;37054;52.054;8.600;2023-04-29T02:12:28;17.20;64.90
51029;DHT22;37054;52.054;8.600;2023-04-29T02:14:53;17.20;65.00
51029;DHT22;37054;52.054;8.600;2023-04-29T02:17:19;17.10;64.90
51029;DHT22;37054;52.054;8.600;2023-04-29T02:19:44;17.10;65.00
51029;DHT22;37054;52.054;8.600;2023-04-29T02:22:10;17.10;65.00
51029;DHT22;37054;52.054;8.600;2023-04-29T02:24:37;17.10;65.10
51029;DHT22;37054;52.054;8.600;2023-04-29T02:27:02;17.00;65.00
51029;DHT22;37054;52.054;8.600;2023-04-29T02:29:30;17.00;65.10
51029;DHT22;37054;52.054;8.600;2023-04-29T02:31:56;17.00;65.10
51029;DHT22;37054;52.054;8.600;2023-04-29T02:34:21;17.00;65.10
51029;DHT22;37054;52.054;8.600;2023-04-29T02:36:48;17.00;65.10
51029;DHT22;37054;52.054;8.600;2023-04-29T02:39:13;17.00;65.10
51029;DHT22;37054;52.054;8.600;2023-04-29T02:41:39;17.00;65.10
51029;DHT22;37054;52.054;8.600;2023-04-29T02:44:06;17.00;65.10
51029;DHT22;37054;52.054;8.600;2023-04-29T02:46:31;17.00;65.10
51029;DHT22;37054;52.054;8.600;2023-04-29T02:48:59;17.00;65.00
51029;DHT22;37054;52.054;8.600;2023-04-29T02:51:26;17.00;65.00
51029;DHT22;37054;52.054;8.600;2023-04-29T02:53:52;17.00;65.10
51029;DHT22;37054;52.054;8.600;2023-04-29T02:56:17;17.00;65.10
51029;DHT22;37054;52.054;8.600;2023-04-29T02:58:43;17.00;64.90
51029;DHT22;37054;52.054;8.600;2023-04-29T03:01:08;16.90;65.00
51029;DHT22;37054;52.054;8.600;2023-04-29T03:03:33;16.90;65.00
51029;DHT22;37054;52.054;8.600;2023-04-29T03:05:59;16.90;64.90
51029;DHT22;37054;52.054;8.600;2023-04-29T03:08:24;16.90;64.90
51029;DHT22;37054;52.054;8.600;2023-04-29T03:10:50;16.80;65.10
51029;DHT22;37054;52.054;8.600;2023-04-29T03:13:15;16.80;65.00
51029;DHT22;37054;52.054;8.600;2023-04-29T03:15:41;16.80;65.00
51029;DHT22;37054;52.054;8.600;2023-04-29T03:18:06;16.80;65.10
51029;DHT22;37054;52.054;8.600;2023-04-29T03:20:33;16.80;65.20
51029;DHT22;37054;52.054;8.600;2023-04-29T03:22:59;16.80;65.20
51029;DHT22;37054;52.054;8.600;2023-04-29T03:25:25;16.80;65.10
51029;DHT22;37054;52.054;8.600;2023-04-29T03:27:50;16.80;65.20
51029;DHT22;37054;52.054;8.600;2023-04-29T03:30:16;16.80;65.30
51029;DHT22;37054;52.054;8.600;2023-04-29T03:32:41;16.80;65.10
51029;DHT22;37054;52.054;8.600;2023-04-29T03:35:07;16.80;65.20
51029;DHT22;37054;52.054;8.600;2023-04-29T03:37:32;16.80;65.30
51029;DHT22;37054;52.054;8.600;2023-04-29T03:39:58;16.70;65.20
51029;DHT22;37054;52.054;8.600;2023-04-29T03:42:23;16.80;65.20
51029;DHT22;37054;52.054;8.600;2023-04-29T03:44:49;16.80;65.30
51029;DHT22;37054;52.054;8.600;2023-04-29T03:47:14;16.80;65.20
51029;DHT22;37054;52.054;8.600;2023-04-29T03:49:39;16.80;65.20
51029;DHT22;37054;52.054;8.600;2023-04-29T03:52:05;16.80;65.30
51029;DHT22;37054;52.054;8.600;2023-04-29T03:54:31;16.80;65.20
51029;DHT22;37054;52.054;8.600;2023-04-29T03:56:56;16.80;65.20
51029;DHT22;37054;52.054;8.600;2023-04-29T03:59:22;16.80;65.20
51029;DHT22;37054;52.054;8.600;2023-04-29T04:01:47;16.80;65.20
51029;DHT22;37054;52.054;8.600;2023-04-29T04:04:12;16.70;65.20
51029;DHT22;37054;52.054;8.600;2023-04-29T04:06:38;16.70;65.10
51029;DHT22;37054;52.054;8.600;2023-04-29T04:09:03;16.70;65.20
51029;DHT22;37054;52.054;8.600;2023-04-29T04:11:29;16.70;65.10
51029;DHT22;37054;52.054;8.600;2023-04-29T04:13:54;16.70;65.00
51029;DHT22;37054;52.054;8.600;2023-04-29T04:16:20;16.70;65.10
51029;DHT22;37054;52.054;8.600;2023-04-29T04:18:45;16.70;65.00
51029;DHT22;37054;52.054;8.600;2023-04-29T04:21:11;16.70;65.10
51029;DHT22;37054;52.054;8.600;2023-04-29T04:23:36;16.70;65.00
51029;DHT22;37054;52.054;8.600;2023-04-29T04:26:04;16.70;65.00
51029;DHT22;37054;52.054;8.600;2023-04-29T04:28:30;16.70;65.00
51029;DHT22;37054;52.054;8.600;2023-04-29T04:30:55;16.70;65.10
51029;DHT22;37054;52.054;8.600;2023-04-29T04:33:21;16.70;64.90
51029;DHT22;37054;52.054;8.600;2023-04-29T04:35:46;16.70;64.90
51029;DHT22;37054;52.054;8.600;2023-04-29T04:38:12;16.70;64.80
51029;DHT22;37054;52.054;8.600;2023-04-29T04:40:41;16.70;64.70
51029;DHT22;37054;52.054;8.600;2023-04-29T04:43:06;16.70;64.70
51029;DHT22;37054;52.054;8.600;2023-04-29T04:45:32;16.70;64.80
51029;DHT22;37054;52.054;8.600;2023-04-29T04:47:57;16.70;64.70
51029;DHT22;37054;52.054;8.600;2023-04-29T04:50:23;16.70;64.60
51029;DHT22;37054;52.054;8.600;2023-04-29T04:52:48;16.70;64.50
51029;DHT22;37054;52.054;8.600;2023-04-29T04:55:14;16.70;64.60
51029;DHT22;37054;52.054;8.600;2023-04-29T04:57:39;16.70;64.40
51029;DHT22;37054;52.054;8.600;2023-04-29T05:00:05;16.70;64.30
51029;DHT22;37054;52.054;8.600;2023-04-29T05:02:31;16.70;64.40
51029;DHT22;37054;52.054;8.600;2023-04-29T05:04:56;16.70;64.30
51029;DHT22;37054;52.054;8.600;2023-04-29T05:07:22;16.70;64.40
51029;DHT22;37054;52.054;8.600;2023-04-29T05:09:47;16.70;64.50
51029;DHT22;37054;52.054;8.600;2023-04-29T05:12:12;16.70;64.50
51029;DHT22;37054;52.054;8.600;2023-04-29T05:14:38;16.70;64.40
51029;DHT22;37054;52.054;8.600;2023-04-29T05:17:03;16.70;64.80
51029;DHT22;37054;52.054;8.600;2023-04-29T05:19:29;16.80;64.60
51029;DHT22;37054;52.054;8.600;2023-04-29T05:21:54;16.80;64.60
51029;DHT22;37054;52.054;8.600;2023-04-29T05:24:20;16.80;64.70
51029;DHT22;37054;52.054;8.600;2023-04-29T05:26:45;16.80;64.60
51029;DHT22;37054;52.054;8.600;2023-04-29T05:29:11;16.80;64.50
51029;DHT22;37054;52.054;8.600;2023-04-29T05:31:36;16.90;64.50
51029;DHT22;37054;52.054;8.600;2023-04-29T05:34:05;16.90;64.60
51029;DHT22;37054;52.054;8.600;2023-04-29T05:36:31;16.90;64.30
51029;DHT22;37054;52.054;8.600;2023-04-29T05:38:56;16.90;64.50
51029;DHT22;37054;52.054;8.600;2023-04-29T05:41:22;16.90;64.50
51029;DHT22;37054;52.054;8.600;2023-04-29T05:43:50;16.90;64.50
51029;DHT22;37054;52.054;8.600;2023-04-29T05:46:16;16.90;64.30
51029;DHT22;37054;52.054;8.600;2023-04-29T05:48:41;16.90;64.50
51029;DHT22;37054;52.054;8.600;2023-04-29T05:51:07;17.00;64.20
51029;DHT22;37054;52.054;8.600;2023-04-29T05:53:32;16.90;64.10
51029;DHT22;37054;52.054;8.600;2023-04-29T05:55:58;16.90;64.40
51029;DHT22;37054;52.054;8.600;2023-04-29T05:58:23;17.00;64.70
51029;DHT22;37054;52.054;8.600;2023-04-29T06:00:50;17.00;64.60
51029;DHT22;37054;52.054;8.600;2023-04-29T06:03:15;17.00;64.10
51029;DHT22;37054;52.054;8.600;2023-04-29T06:05:41;17.00;64.00
51029;DHT22;37054;52.054;8.600;2023-04-29T06:08:06;17.00;64.00
51029;DHT22;37054;52.054;8.600;2023-04-29T06:10:32;16.90;64.30
51029;DHT22;37054;52.054;8.600;2023-04-29T06:12:58;16.90;64.40
51029;DHT22;37054;52.054;8.600;2023-04-29T06:15:23;17.00;64.60
51029;DHT22;37054;52.054;8.600;2023-04-29T06:17:49;17.00;64.60
51029;DHT22;37054;52.054;8.600;2023-04-29T06:20:14;17.10;64.70
51029;DHT22;37054;52.054;8.600;2023-04-29T06:22:40;17.20;64.50
51029;DHT22;37054;52.054;8.600;2023-04-29T06:25:05;17.20;64.40
51029;DHT22;37054;52.054;8.600;2023-04-29T06:27:31;17.20;64.40
51029;DHT22;37054;52.054;8.600;2023-04-29T06:29:56;17.30;64.40
51029;DHT22;37054;52.054;8.600;2023-04-29T06:32:22;17.30;64.00
51029;DHT22;37054;52.054;8.600;2023-04-29T06:34:47;17.30;64.30
51029;DHT22;37054;52.054;8.600;2023-04-29T06:37:13;17.30;64.10
51029;DHT22;37054;52.054;8.600;2023-04-29T06:39:38;17.30;64.30
51029;DHT22;37054;52.054;8.600;2023-04-29T06:42:04;17.30;64.10
51029;DHT22;37054;52.054;8.600;2023-04-29T06:44:29;17.30;64.30
51029;DHT22;37054;52.054;8.600;2023-04-29T06:46:55;17.30;64.30
51029;DHT22;37054;52.054;8.600;2023-04-29T06:49:20;17.40;64.20
51029;DHT22;37054;52.054;8.600;2023-04-29T06:51:46;17.40;64.20
51029;DHT22;37054;52.054;8.600;2023-04-29T06:54:12;17.50;64.30
51029;DHT22;37054;52.054;8.600;2023-04-29T06:56:37;17.50;64.50
51029;DHT22;37054;52.054;8.600;2023-04-29T06:59:02;17.60;64.60
51029;DHT22;37054;52.054;8.600;2023-04-29T07:01:28;17.60;64.40
51029;DHT22;37054;52.054;8.600;2023-04-29T07:03:54;17.70;64.30
51029;DHT22;37054;52.054;8.600;2023-04-29T07:06:19;17.70;64.00
51029;DHT22;37054;52.054;8.600;2023-04-29T07:08:45;17.80;64.00
51029;DHT22;37054;52.054;8.600;2023-04-29T07:11:10;17.90;63.70
51029;DHT22;37054;52.054;8.600;2023-04-29T07:13:36;17.80;63.50
51029;DHT22;37054;52.054;8.600;2023-04-29T07:16:01;17.90;63.40
51029;DHT22;37054;52.054;8.600;2023-04-29T07:18:27;17.90;63.30
51029;DHT22;37054;52.054;8.600;2023-04-29T07:20:52;17.80;63.20
51029;DHT22;37054;52.054;8.600;2023-04-29T07:23:19;17.80;63.20
51029;DHT22;37054;52.054;8.600;2023-04-29T07:25:45;17.90;63.10
51029;DHT22;37054;52.054;8.600;2023-04-29T07:28:11;17.90;63.40
51029;DHT22;37054;52.054;8.600;2023-04-29T07:30:36;17.90;63.10
51029;DHT22;37054;52.054;8.600;2023-04-29T07:33:02;17.90;63.30
51029;DHT22;37054;52.054;8.600;2023-04-29T07:35:28;18.00;63.60
51029;DHT22;37054;52.054;8.600;2023-04-29T07:37:54;18.00;63.40
51029;DHT22;37054;52.054;8.600;2023-04-29T07:40:20;18.00;63.30
51029;DHT22;37054;52.054;8.600;2023-04-29T07:42:45;18.10;63.50
51029;DHT22;37054;52.054;8.600;2023-04-29T07:45:11;18.20;63.50
51029;DHT22;37054;52.054;8.600;2023-04-29T07:47:38;18.30;63.60
51029;DHT22;37054;52.054;8.600;2023-04-29T07:50:03;18.50;63.60
51029;DHT22;37054;52.054;8.600;2023-04-29T07:52:29;18.60;63.40
51029;DHT22;37054;52.054;8.600;2023-04-29T07:54:55;18.70;63.70
51029;DHT22;37054;52.054;8.600;2023-04-29T07:57:20;18.80;63.50
51029;DHT22;37054;52.054;8.600;2023-04-29T07:59:46;18.80;62.90
51029;DHT22;37054;52.054;8.600;2023-04-29T08:02:11;18.80;62.40
51029;DHT22;37054;52.054;8.600;2023-04-29T08:04:38;18.90;62.70
51029;DHT22;37054;52.054;8.600;2023-04-29T08:07:05;18.90;62.10
51029;DHT22;37054;52.054;8.600;2023-04-29T08:09:30;18.80;62.00
51029;DHT22;37054;52.054;8.600;2023-04-29T08:11:56;18.90;62.50
51029;DHT22;37054;52.054;8.600;2023-04-29T08:14:21;18.90;62.00
51029;DHT22;37054;52.054;8.600;2023-04-29T08:16:47;18.90;62.40
51029;DHT22;37054;52.054;8.600;2023-04-29T08:19:12;18.90;62.30
51029;DHT22;37054;52.054;8.600;2023-04-29T08:21:38;18.90;62.80
51029;DHT22;37054;52.054;8.600;2023-04-29T08:24:03;19.10;62.90
51029;DHT22;37054;52.054;8.600;2023-04-29T08:26:30;19.10;62.70
51029;DHT22;37054;52.054;8.600;2023-04-29T08:28:55;19.20;62.80
51029;DHT22;37054;52.054;8.600;2023-04-29T08:31:20;19.30;62.70
51029;DHT22;37054;52.054;8.600;2023-04-29T08:33:46;19.30;62.90
51029;DHT22;37054;52.054;8.600;2023-04-29T08:36:12;19.40;62.70
51029;DHT22;37054;52.054;8.600;2023-04-29T08:38:38;19.50;62.70
51029;DHT22;37054;52.054;8.600;2023-04-29T08:41:03;19.60;62.80
51029;DHT22;37054;52.054;8.600;2023-04-29T08:43:31;19.60;62.10
51029;DHT22;37054;52.054;8.600;2023-04-29T08:45:59;19.70;61.70
51029;DHT22;37054;52.054;8.600;2023-04-29T08:48:24;19.70;61.70
51029;DHT22;37054;52.054;8.600;2023-04-29T08:50:50;19.80;61.90
51029;DHT22;37054;52.054;8.600;2023-04-29T08:53:16;19.90;62.00
51029;DHT22;37054;52.054;8.600;2023-04-29T08:55:42;20.10;62.30
51029;DHT22;37054;52.054;8.600;2023-04-29T08:58:08;20.30;62.60
51029;DHT22;37054;52.054;8.600;2023-04-29T09:00:34;20.50;62.50
51029;DHT22;37054;52.054;8.600;2023-04-29T09:03:02;20.80;63.00
51029;DHT22;37054;52.054;8.600;2023-04-29T09:05:29;21.00;63.40
51029;DHT22;37054;52.054;8.600;2023-04-29T09:07:55;21.30;62.40
51029;DHT22;37054;52.054;8.600;2023-04-29T09:10:21;21.50;62.20
51029;DHT22;37054;52.054;8.600;2023-04-29T09:12:47;21.80;62.30
51029;DHT22;37054;52.054;8.600;2023-04-29T09:15:13;22.20;61.80
51029;DHT22;37054;52.054;8.600;2023-04-29T09:22:47;22.60;57.30
51029;DHT22;37054;52.054;8.600;2023-04-29T09:25:13;22.60;57.00
51029;DHT22;37054;52.054;8.600;2023-04-29T09:27:38;22.70;57.50
51029;DHT22;37054;52.054;8.600;2023-04-29T09:30:04;22.90;57.60
51029;DHT22;37054;52.054;8.600;2023-04-29T09:32:29;23.00;55.50
51029;DHT22;37054;52.054;8.600;2023-04-29T09:34:55;23.10;54.60
51029;DHT22;37054;52.054;8.600;2023-04-29T09:37:24;23.20;56.00
51029;DHT22;37054;52.054;8.600;2023-04-29T09:39:51;23.50;54.90
51029;DHT22;37054;52.054;8.600;2023-04-29T09:42:17;23.70;56.50
51029;DHT22;37054;52.054;8.600;2023-04-29T09:44:42;24.00;56.70
51029;DHT22;37054;52.054;8.600;2023-04-29T09:47:09;24.30;57.60
51029;DHT22;37054;52.054;8.600;2023-04-29T09:52:08;25.00;54.90
51029;DHT22;37054;52.054;8.600;2023-04-29T09:54:35;25.10;53.70
51029;DHT22;37054;52.054;8.600;2023-04-29T09:57:01;25.20;54.00
51029;DHT22;37054;52.054;8.600;2023-04-29T09:59:29;25.10;52.00
51029;DHT22;37054;52.054;8.600;2023-04-29T10:01:55;25.10;52.20
51029;DHT22;37054;52.054;8.600;2023-04-29T10:04:21;25.20;53.60
51029;DHT22;37054;52.054;8.600;2023-04-29T10:06:48;25.80;52.60
51029;DHT22;37054;52.054;8.600;2023-04-29T10:09:14;26.30;51.60
51029;DHT22;37054;52.054;8.600;2023-04-29T10:11:43;26.70;51.10
51029;DHT22;37054;52.054;8.600;2023-04-29T10:14:12;26.60;48.00
51029;DHT22;37054;52.054;8.600;2023-04-29T10:17:13;26.40;47.30
51029;DHT22;37054;52.054;8.600;2023-04-29T10:19:45;26.20;45.40
51029;DHT22;37054;52.054;8.600;2023-04-29T10:22:13;25.80;45.60
51029;DHT22;37054;52.054;8.600;2023-04-29T10:24:41;25.60;44.90
51029;DHT22;37054;52.054;8.600;2023-04-29T10:27:07;25.40;44.50
51029;DHT22;37054;52.054;8.600;2023-04-29T10:29:35;25.30;46.00
51029;DHT22;37054;52.054;8.600;2023-04-29T10:32:02;25.00;44.20
51029;DHT22;37054;52.054;8.600;2023-04-29T10:34:28;24.70;45.10
51029;DHT22;37054;52.054;8.600;2023-04-29T10:36:53;24.60;45.80
51029;DHT22;37054;52.054;8.600;2023-04-29T10:39:25;24.40;45.50
51029;DHT22;37054;52.054;8.600;2023-04-29T10:41:52;24.20;45.90
51029;DHT22;37054;52.054;8.600;2023-04-29T10:44:18;24.00;46.10
51029;DHT22;37054;52.054;8.600;2023-04-29T10:46:43;23.80;44.60
51029;DHT22;37054;52.054;8.600;2023-04-29T10:49:09;23.50;44.50
51029;DHT22;37054;52.054;8.600;2023-04-29T10:51:41;23.30;46.50
51029;DHT22;37054;52.054;8.600;2023-04-29T10:54:14;23.20;46.50
51029;DHT22;37054;52.054;8.600;2023-04-29T10:56:46;23.10;45.40
51029;DHT22;37054;52.054;8.600;2023-04-29T10:59:12;23.00;45.00
51029;DHT22;37054;52.054;8.600;2023-04-29T11:01:48;22.90;45.30
51029;DHT22;37054;52.054;8.600;2023-04-29T11:04:15;22.80;45.40
51029;DHT22;37054;52.054;8.600;2023-04-29T11:06:41;22.70;46.10
51029;DHT22;37054;52.054;8.600;2023-04-29T11:14:23;22.90;45.70
51029;DHT22;37054;52.054;8.600;2023-04-29T11:16:52;23.20;46.70
51029;DHT22;37054;52.054;8.600;2023-04-29T11:19:18;23.70;47.40
51029;DHT22;37054;52.054;8.600;2023-04-29T11:21:44;24.20;45.20
51029;DHT22;37054;52.054;8.600;2023-04-29T11:24:11;24.50;44.00
51029;DHT22;37054;52.054;8.600;2023-04-29T11:26:37;24.70;43.20
51029;DHT22;37054;52.054;8.600;2023-04-29T11:29:06;24.80;43.70
51029;DHT22;37054;52.054;8.600;2023-04-29T11:31:34;24.90;42.50
51029;DHT22;37054;52.054;8.600;2023-04-29T11:34:02;24.90;40.80
51029;DHT22;37054;52.054;8.600;2023-04-29T11:36:28;24.70;38.30
51029;DHT22;37054;52.054;8.600;2023-04-29T11:38:56;24.40;39.00
51029;DHT22;37054;52.054;8.600;2023-04-29T11:41:23;24.30;38.90
51029;DHT22;37054;52.054;8.600;2023-04-29T11:43:56;24.20;38.70
51029;DHT22;37054;52.054;8.600;2023-04-29T11:46:22;24.10;38.50
51029;DHT22;37054;52.054;8.600;2023-04-29T11:48:47;24.10;39.30
51029;DHT22;37054;52.054;8.600;2023-04-29T11:51:14;24.20;37.60
51029;DHT22;37054;52.054;8.600;2023-04-29T11:53:40;24.20;38.00
51029;DHT22;37054;52.054;8.600;2023-04-29T11:56:05;24.30;38.50
51029;DHT22;37054;52.054;8.600;2023-04-29T11:58:31;24.40;39.20
51029;DHT22;37054;52.054;8.600;2023-04-29T12:00:59;24.60;39.10
51029;DHT22;37054;52.054;8.600;2023-04-29T12:03:25;24.70;38.90
51029;DHT22;37054;52.054;8.600;2023-04-29T12:05:54;25.10;39.50
51029;DHT22;37054;52.054;8.600;2023-04-29T12:08:20;25.50;40.30
51029;DHT22;37054;52.054;8.600;2023-04-29T12:10:46;25.80;38.70
51029;DHT22;37054;52.054;8.600;2023-04-29T12:13:12;26.10;37.90
51029;DHT22;37054;52.054;8.600;2023-04-29T12:15:37;26.20;36.30
51029;DHT22;37054;52.054;8.600;2023-04-29T12:18:03;26.10;35.20
51029;DHT22;37054;52.054;8.600;2023-04-29T12:20:28;26.10;37.10
51029;DHT22;37054;52.054;8.600;2023-04-29T12:22:54;26.20;36.70
51029;DHT22;37054;52.054;8.600;2023-04-29T12:25:23;26.20;36.20
51029;DHT22;37054;52.054;8.600;2023-04-29T12:27:49;26.10;35.80
51029;DHT22;37054;52.054;8.600;2023-04-29T12:30:14;26.00;34.90
51029;DHT22;37054;52.054;8.600;2023-04-29T12:32:40;25.80;35.40
51029;DHT22;37054;52.054;8.600;2023-04-29T12:35:13;25.60;35.10
51029;DHT22;37054;52.054;8.600;2023-04-29T12:37:39;25.50;35.10
51029;DHT22;37054;52.054;8.600;2023-04-29T12:40:05;25.20;35.50
51029;DHT22;37054;52.054;8.600;2023-04-29T12:42:31;25.20;35.80
51029;DHT22;37054;52.054;8.600;2023-04-29T12:44:57;25.00;36.30
51029;DHT22;37054;52.054;8.600;2023-04-29T12:47:22;24.80;35.20
51029;DHT22;37054;52.054;8.600;2023-04-29T12:49:48;24.50;35.10
51029;DHT22;37054;52.054;8.600;2023-04-29T12:52:14;24.20;36.10
51029;DHT22;37054;52.054;8.600;2023-04-29T12:54:39;24.20;37.10
51029;DHT22;37054;52.054;8.600;2023-04-29T12:57:06;24.10;36.90
51029;DHT22;37054;52.054;8.600;2023-04-29T12:59:31;24.00;36.90
51029;DHT22;37054;52.054;8.600;2023-04-29T13:01:57;24.00;37.50
51029;DHT22;37054;52.054;8.600;2023-04-29T13:04:22;24.00;37.40
51029;DHT22;37054;52.054;8.600;2023-04-29T13:06:48;24.00;37.00
51029;DHT22;37054;52.054;8.600;2023-04-29T13:09:13;24.00;37.40
51029;DHT22;37054;52.054;8.600;2023-04-29T13:11:39;23.90;37.10
51029;DHT22;37054;52.054;8.600;2023-04-29T13:14:04;23.80;36.60
51029;DHT22;37054;52.054;8.600;2023-04-29T13:16:33;23.70;36.90
51029;DHT22;37054;52.054;8.600;2023-04-29T13:18:59;23.60;37.40
51029;DHT22;37054;52.054;8.600;2023-04-29T13:21:24;23.50;37.50
51029;DHT22;37054;52.054;8.600;2023-04-29T13:23:52;23.50;37.20
51029;DHT22;37054;52.054;8.600;2023-04-29T13:26:17;23.30;37.10
51029;DHT22;37054;52.054;8.600;2023-04-29T13:28:42;23.20;37.00
51029;DHT22;37054;52.054;8.600;2023-04-29T13:31:08;23.10;37.30
51029;DHT22;37054;52.054;8.600;2023-04-29T13:33:33;22.90;37.30
51029;DHT22;37054;52.054;8.600;2023-04-29T13:35:59;22.80;37.70
51029;DHT22;37054;52.054;8.600;2023-04-29T13:38:24;22.80;38.30
51029;DHT22;37054;52.054;8.600;2023-04-29T13:40:50;22.90;38.40
51029;DHT22;37054;52.054;8.600;2023-04-29T13:43:16;23.00;38.60
51029;DHT22;37054;52.054;8.600;2023-04-29T13:45:41;23.10;38.40
51029;DHT22;37054;52.054;8.600;2023-04-29T13:48:07;23.20;37.70
51029;DHT22;37054;52.054;8.600;2023-04-29T13:50:32;23.20;37.50
51029;DHT22;37054;52.054;8.600;2023-04-29T13:52:58;23.10;37.40
51029;DHT22;37054;52.054;8.600;2023-04-29T13:55:23;23.10;36.80
51029;DHT22;37054;52.054;8.600;2023-04-29T13:57:49;22.90;36.80
51029;DHT22;37054;52.054;8.600;2023-04-29T14:00:15;22.80;36.90
51029;DHT22;37054;52.054;8.600;2023-04-29T14:02:40;22.60;37.20
51029;DHT22;37054;52.054;8.600;2023-04-29T14:05:07;22.50;37.70
51029;DHT22;37054;52.054;8.600;2023-04-29T14:07:34;22.40;37.30
51029;DHT22;37054;52.054;8.600;2023-04-29T14:09:59;22.30;37.10
51029;DHT22;37054;52.054;8.600;2023-04-29T14:12:25;22.30;37.00
51029;DHT22;37054;52.054;8.600;2023-04-29T14:14:50;22.30;36.80
51029;DHT22;37054;52.054;8.600;2023-04-29T14:17:17;22.40;37.00
51029;DHT22;37054;52.054;8.600;2023-04-29T14:19:42;22.60;36.20
51029;DHT22;37054;52.054;8.600;2023-04-29T14:22:08;22.80;36.70
51029;DHT22;37054;52.054;8.600;2023-04-29T14:24:33;23.00;36.80
51029;DHT22;37054;52.054;8.600;2023-04-29T14:26:59;23.20;36.40
51029;DHT22;37054;52.054;8.600;2023-04-29T14:29:26;23.40;36.20
51029;DHT22;37054;52.054;8.600;2023-04-29T14:31:51;23.60;35.70
51029;DHT22;37054;52.054;8.600;2023-04-29T14:34:17;23.70;35.90
51029;DHT22;37054;52.054;8.600;2023-04-29T14:36:44;23.70;35.50
51029;DHT22;37054;52.054;8.600;2023-04-29T14:39:10;23.80;35.80
51029;DHT22;37054;52.054;8.600;2023-04-29T14:41:36;23.70;34.40
51029;DHT22;37054;52.054;8.600;2023-04-29T14:44:02;23.70;35.20
51029;DHT22;37054;52.054;8.600;2023-04-29T14:46:27;23.80;35.40
51029;DHT22;37054;52.054;8.600;2023-04-29T14:48:53;23.80;34.10
51029;DHT22;37054;52.054;8.600;2023-04-29T14:51:19;23.80;34.60
51029;DHT22;37054;52.054;8.600;2023-04-29T14:53:45;23.90;34.80
51029;DHT22;37054;52.054;8.600;2023-04-29T14:56:10;24.00;34.60
51029;DHT22;37054;52.054;8.600;2023-04-29T14:58:36;24.00;34.70
51029;DHT22;37054;52.054;8.600;2023-04-29T15:01:01;24.10;35.10
51029;DHT22;37054;52.054;8.600;2023-04-29T15:03:27;24.10;34.70
51029;DHT22;37054;52.054;8.600;2023-04-29T15:05:52;24.10;34.30
51029;DHT22;37054;52.054;8.600;2023-04-29T15:08:18;24.10;34.30
51029;DHT22;37054;52.054;8.600;2023-04-29T15:10:44;24.10;34.20
51029;DHT22;37054;52.054;8.600;2023-04-29T15:13:14;24.20;34.70
51029;DHT22;37054;52.054;8.600;2023-04-29T15:15:39;24.20;34.40
51029;DHT22;37054;52.054;8.600;2023-04-29T15:18:05;24.20;33.50
51029;DHT22;37054;52.054;8.600;2023-04-29T15:20:33;24.10;33.90
51029;DHT22;37054;52.054;8.600;2023-04-29T15:22:58;24.10;34.10
51029;DHT22;37054;52.054;8.600;2023-04-29T15:25:23;24.10;34.30
51029;DHT22;37054;52.054;8.600;2023-04-29T15:27:49;24.10;34.50
51029;DHT22;37054;52.054;8.600;2023-04-29T15:30:14;24.00;34.50
51029;DHT22;37054;52.054;8.600;2023-04-29T15:32:41;23.90;34.50
51029;DHT22;37054;52.054;8.600;2023-04-29T15:35:07;23.80;34.50
51029;DHT22;37054;52.054;8.600;2023-04-29T15:37:32;23.70;34.50
51029;DHT22;37054;52.054;8.600;2023-04-29T15:39:58;23.70;34.60
51029;DHT22;37054;52.054;8.600;2023-04-29T15:42:24;23.80;35.10
51029;DHT22;37054;52.054;8.600;2023-04-29T15:44:50;23.80;34.90
51029;DHT22;37054;52.054;8.600;2023-04-29T15:47:16;23.80;33.90
51029;DHT22;37054;52.054;8.600;2023-04-29T15:49:41;23.70;33.80